TimeAST,TemperatureF,Dew PointF,Humidity,Sea Level PressureIn,VisibilityMPH,Wind Direction,Wind SpeedMPH,Gust SpeedMPH,PrecipitationIn,Events,Conditions,WindDirDegrees,DateUTC
12:56 AM,75.9,57.0,52,30.03,10.0,ENE,8.1,-,N/A,,Scattered Clouds,60,2013-03-13 04:56:00
1:56 AM,75.9,55.9,50,30.02,10.0,ENE,10.4,-,N/A,,Scattered Clouds,60,2013-03-13 05:56:00
2:56 AM,75.0,57.0,53,30.01,10.0,East,8.1,-,N/A,,Mostly Cloudy,90,2013-03-13 06:56:00
3:56 AM,75.0,57.0,53,30.02,10.0,East,9.2,-,N/A,,Scattered Clouds,90,2013-03-13 07:56:00
4:56 AM,75.0,55.0,50,30.01,10.0,ENE,5.8,-,N/A,,Scattered Clouds,60,2013-03-13 08:56:00
5:56 AM,75.0,55.9,51,30.01,10.0,ESE,5.8,-,N/A,,Scattered Clouds,110,2013-03-13 09:56:00
6:56 AM,75.0,57.0,53,30.03,10.0,Calm,Calm,-,N/A,,Mostly Cloudy,0,2013-03-13 10:56:00
7:56 AM,75.0,57.0,53,30.05,10.0,SE,3.5,-,N/A,,Mostly Cloudy,130,2013-03-13 11:56:00
8:56 AM,77.0,57.0,50,30.05,10.0,ENE,4.6,-,N/A,,Mostly Cloudy,70,2013-03-13 12:56:00
9:56 AM,79.0,55.9,45,30.06,10.0,ESE,6.9,-,N/A,,Mostly Cloudy,120,2013-03-13 13:56:00
10:56 AM,79.0,55.9,45,30.05,10.0,ENE,9.2,-,N/A,,Overcast,70,2013-03-13 14:56:00
11:56 AM,81.0,59.0,47,30.04,10.0,ENE,12.7,19.6,N/A,,Mostly Cloudy,70,2013-03-13 15:56:00
12:56 PM,82.9,57.0,41,30.01,10.0,ENE,16.1,-,N/A,,Scattered Clouds,70,2013-03-13 16:56:00
1:56 PM,82.0,55.9,41,29.99,10.0,ENE,13.8,-,N/A,,Scattered Clouds,60,2013-03-13 17:56:00
2:56 PM,82.0,59.0,45,29.97,10.0,NE,16.1,23.0,N/A,,Partly Cloudy,40,2013-03-13 18:56:00
3:56 PM,81.0,60.1,49,29.97,10.0,ENE,13.8,-,N/A,,Partly Cloudy,60,2013-03-13 19:56:00
4:56 PM,80.1,62.1,54,29.97,10.0,ENE,10.4,-,N/A,,Scattered Clouds,60,2013-03-13 20:56:00
5:56 PM,78.1,62.1,58,29.97,10.0,East,12.7,-,N/A,,Scattered Clouds,80,2013-03-13 21:56:00
6:56 PM,75.9,63.0,64,29.96,10.0,ENE,12.7,-,N/A,,Scattered Clouds,60,2013-03-13 22:56:00
7:56 PM,75.9,64.0,67,29.98,10.0,ENE,13.8,-,N/A,,Scattered Clouds,70,2013-03-13 23:56:00
8:56 PM,75.9,64.0,67,30.00,10.0,East,12.7,-,N/A,,Scattered Clouds,90,2013-03-14 00:56:00
9:56 PM,75.0,64.0,69,30.01,10.0,East,9.2,-,N/A,,Scattered Clouds,90,2013-03-14 01:56:00
10:56 PM,75.9,62.1,62,30.01,10.0,ESE,5.8,-,N/A,,Scattered Clouds,110,2013-03-14 02:56:00
11:56 PM,73.9,62.1,66,30.01,10.0,East,4.6,-,N/A,,Scattered Clouds,100,2013-03-14 03:56:00